Time;durP1;ratioP1;P1;durP2;ratioP2;P2;SDS_P1;SDS_P2;PMS_P1;PMS_P2;Temp;Humidity;BMP_temperature;BMP_pressure;BME280_temperature;BME280_humidity;BME280_pressure;Samples;Min_cycle;Max_cycle;Signal;HPM_P1;HPM_P2
2021/10/24 00:00:46;;;;;;;7.47;4.63;;;9.20;99.90;;;;;;6229978;28;20484;-65
2021/10/24 00:03:50;;;;;;;6.37;4.87;;;9.20;99.90;;;;;;6229974;28;20537;-65
2021/10/24 00:06:53;;;;;;;6.30;5.27;;;9.10;99.90;;;;;;6229876;28;20958;-65
2021/10/24 00:09:58;;;;;;;6.70;4.77;;;9.00;99.90;;;;;;6229721;28;20506;-65
2021/10/24 00:13:01;;;;;;;6.20;5.57;;;9.00;99.90;;;;;;6230562;28;20490;-64
2021/10/24 00:16:04;;;;;;;8.70;5.00;;;9.00;99.90;;;;;;6230657;28;20484;-65
2021/10/24 00:19:08;;;;;;;5.73;5.20;;;9.00;99.90;;;;;;6230158;28;20466;-65
2021/10/24 00:22:11;;;;;;;8.13;6.70;;;8.90;99.90;;;;;;6230781;28;20892;-65
2021/10/24 00:25:15;;;;;;;6.00;5.43;;;8.90;99.90;;;;;;6231176;28;20495;-65
2021/10/24 00:28:19;;;;;;;7.07;6.13;;;8.90;99.90;;;;;;6229707;28;20766;-65
2021/10/24 00:31:23;;;;;;;7.83;5.90;;;8.90;99.90;;;;;;6229584;28;20546;-65
2021/10/24 00:34:26;;;;;;;6.17;5.67;;;8.80;99.90;;;;;;6229653;28;20449;-66
2021/10/24 00:37:29;;;;;;;6.60;5.57;;;8.80;99.90;;;;;;6229301;28;20471;-65
2021/10/24 00:40:34;;;;;;;8.37;6.10;;;8.70;99.90;;;;;;6228642;28;20464;-65
2021/10/24 00:43:39;;;;;;;7.33;5.93;;;8.60;99.90;;;;;;6229360;28;20471;-65
2021/10/24 00:46:42;;;;;;;6.80;5.57;;;8.50;99.90;;;;;;6228715;28;20951;-65
2021/10/24 00:49:45;;;;;;;8.13;7.20;;;8.50;99.90;;;;;;6229134;28;20468;-65
2021/10/24 00:52:49;;;;;;;7.33;5.80;;;8.50;99.90;;;;;;6228794;28;20472;-65
2021/10/24 00:55:54;;;;;;;6.60;4.60;;;8.50;99.90;;;;;;6228757;28;20460;-64
2021/10/24 00:58:57;;;;;;;5.73;5.23;;;8.50;99.90;;;;;;6227668;28;20502;-64
2021/10/24 01:02:00;;;;;;;5.17;4.67;;;8.50;99.90;;;;;;6228788;28;20483;-64
2021/10/24 01:05:05;;;;;;;5.40;4.23;;;8.50;99.90;;;;;;6228046;28;21099;-65
2021/10/24 01:08:09;;;;;;;5.00;4.50;;;8.40;99.90;;;;;;6228428;28;20480;-65
2021/10/24 01:11:14;;;;;;;5.40;4.90;;;8.40;99.90;;;;;;6228553;28;20471;-65
2021/10/24 01:14:17;;;;;;;6.03;4.70;;;8.40;99.90;;;;;;6228047;28;20476;-65
2021/10/24 01:17:21;;;;;;;5.57;4.33;;;8.30;99.90;;;;;;6227860;28;20488;-65
2021/10/24 01:20:27;;;;;;;6.83;4.70;;;8.30;99.90;;;;;;6227525;28;21030;-65
2021/10/24 01:23:32;;;;;;;6.20;4.50;;;8.30;99.90;;;;;;6227738;28;20468;-65
2021/10/24 01:26:38;;;;;;;6.93;5.27;;;8.30;99.90;;;;;;6227428;28;20486;-65
2021/10/24 01:29:41;;;;;;;7.47;4.43;;;8.20;99.90;;;;;;6227793;28;20476;-65
2021/10/24 01:32:45;;;;;;;5.73;4.30;;;8.20;99.90;;;;;;6227622;28;20490;-65
2021/10/24 01:35:52;;;;;;;6.20;4.17;;;8.20;99.90;;;;;;6227551;28;20479;-65
2021/10/24 01:38:57;;;;;;;6.63;4.70;;;8.10;99.90;;;;;;6227258;28;20978;-65
2021/10/24 01:42:00;;;;;;;5.90;4.40;;;8.10;99.90;;;;;;6227223;28;20468;-65
2021/10/24 01:45:09;;;;;;;4.90;3.93;;;8.10;99.90;;;;;;6227537;28;20502;-66
2021/10/24 01:48:13;;;;;;;6.63;4.57;;;8.00;99.90;;;;;;6227373;28;20472;-66
2021/10/24 01:51:17;;;;;;;6.77;5.10;;;8.00;99.90;;;;;;6227041;28;20475;-66
2021/10/24 01:54:21;;;;;;;5.47;4.30;;;8.00;99.90;;;;;;6226686;28;20479;-66
2021/10/24 01:57:25;;;;;;;5.40;3.93;;;7.90;99.90;;;;;;6226968;28;20472;-66
2021/10/24 02:00:29;;;;;;;4.53;4.13;;;7.90;99.90;;;;;;6217556;28;20896;-66
2021/10/24 02:03:32;;;;;;;5.60;4.20;;;7.90;99.90;;;;;;6226810;28;20478;-66
2021/10/24 02:06:35;;;;;;;5.10;4.43;;;7.80;99.90;;;;;;6226569;28;20480;-66
2021/10/24 02:09:40;;;;;;;5.43;4.03;;;7.80;99.90;;;;;;6226629;28;20494;-66
2021/10/24 02:12:43;;;;;;;4.97;4.50;;;7.80;99.90;;;;;;6226560;28;20550;-66
2021/10/24 02:15:46;;;;;;;5.23;4.73;;;7.80;99.90;;;;;;6225893;28;20487;-65
2021/10/24 02:18:50;;;;;;;7.97;4.17;;;7.80;99.90;;;;;;6225976;28;20503;-65
2021/10/24 02:21:53;;;;;;;5.60;4.00;;;7.80;99.90;;;;;;6226610;28;20481;-65
2021/10/24 02:24:57;;;;;;;7.23;4.13;;;7.80;99.90;;;;;;6226527;28;20487;-65
2021/10/24 02:28:01;;;;;;;5.20;4.70;;;7.80;99.90;;;;;;6225972;28;20486;-66
2021/10/24 02:31:04;;;;;;;6.13;5.50;;;7.80;99.90;;;;;;6226342;28;20983;-65
2021/10/24 02:34:07;;;;;;;5.40;4.90;;;7.80;99.90;;;;;;6225938;28;20568;-66
2021/10/24 02:37:11;;;;;;;6.60;3.87;;;7.90;99.90;;;;;;6226469;28;20464;-66
2021/10/24 02:40:15;;;;;;;8.83;4.30;;;7.80;99.90;;;;;;6225980;28;20464;-67
2021/10/24 02:43:18;;;;;;;3.37;3.07;;;7.80;99.90;;;;;;6226732;28;20452;-67
2021/10/24 02:46:21;;;;;;;3.80;3.37;;;7.80;99.90;;;;;;6226215;28;20480;-67
2021/10/24 02:49:28;;;;;;;8.53;3.90;;;7.90;99.90;;;;;;6226540;28;20573;-67
2021/10/24 02:52:32;;;;;;;4.13;3.80;;;7.80;99.90;;;;;;6226492;28;20819;-68
2021/10/24 02:55:36;;;;;;;3.90;3.50;;;7.90;99.90;;;;;;6225506;28;20464;-67
2021/10/24 02:58:39;;;;;;;4.80;3.63;;;7.90;99.90;;;;;;6225558;28;21267;-67
2021/10/24 03:01:42;;;;;;;4.27;3.47;;;7.90;99.90;;;;;;6221103;28;20476;-67
2021/10/24 03:04:45;;;;;;;3.50;3.20;;;7.90;99.90;;;;;;6225706;28;20467;-67
2021/10/24 03:07:49;;;;;;;3.93;3.33;;;7.80;99.90;;;;;;6226023;28;20479;-66
2021/10/24 03:10:53;;;;;;;6.43;3.60;;;7.80;99.90;;;;;;6225632;28;20476;-66
2021/10/24 03:13:56;;;;;;;3.10;2.63;;;7.80;99.90;;;;;;6225788;28;20475;-66
2021/10/24 03:17:00;;;;;;;5.67;3.43;;;7.80;99.90;;;;;;6225553;28;21038;-66
2021/10/24 03:20:04;;;;;;;5.60;3.43;;;7.70;99.90;;;;;;6225668;28;20486;-66
2021/10/24 03:23:08;;;;;;;3.80;3.37;;;7.70;99.90;;;;;;6225642;28;20480;-66
2021/10/24 03:26:12;;;;;;;5.07;3.83;;;7.70;99.90;;;;;;6225734;28;20488;-66
2021/10/24 03:29:15;;;;;;;4.90;3.03;;;7.60;99.90;;;;;;6227989;28;20808;-66
2021/10/24 03:32:19;;;;;;;4.07;3.47;;;7.60;99.90;;;;;;6230129;28;20468;-66
2021/10/24 03:35:22;;;;;;;3.67;3.33;;;7.60;99.90;;;;;;6230306;28;20472;-66
2021/10/24 03:38:25;;;;;;;4.80;3.97;;;7.50;99.90;;;;;;6230233;28;20534;-66
2021/10/24 03:41:29;;;;;;;3.27;2.97;;;7.50;99.90;;;;;;6230778;28;20487;-66
2021/10/24 03:44:33;;;;;;;5.43;3.40;;;7.40;99.90;;;;;;6230012;28;20823;-66
2021/10/24 03:47:36;;;;;;;5.63;3.60;;;7.40;99.90;;;;;;6229893;28;20475;-66
2021/10/24 03:50:39;;;;;;;3.67;3.37;;;7.40;99.90;;;;;;6230071;28;20484;-66
2021/10/24 03:53:42;;;;;;;6.37;4.77;;;7.40;99.90;;;;;;6230682;28;20471;-66
2021/10/24 03:56:46;;;;;;;5.90;3.97;;;7.40;99.90;;;;;;6230208;28;20479;-66
2021/10/24 03:59:50;;;;;;;3.97;3.57;;;7.30;99.90;;;;;;6231103;28;20475;-66
2021/10/24 04:02:54;;;;;;;3.00;2.80;;;7.30;99.90;;;;;;6231037;28;20472;-66
2021/10/24 04:05:58;;;;;;;5.03;3.70;;;7.20;99.90;;;;;;6231249;28;20480;-66
2021/10/24 04:09:01;;;;;;;3.93;3.63;;;7.20;99.90;;;;;;6224949;28;21010;-66
2021/10/24 04:12:06;;;;;;;4.33;3.07;;;7.20;99.90;;;;;;6229188;28;20483;-66
2021/10/24 04:15:10;;;;;;;4.40;3.83;;;7.20;99.90;;;;;;6229586;28;20821;-66
2021/10/24 04:18:13;;;;;;;3.97;3.60;;;7.10;99.90;;;;;;6229596;28;20967;-66
2021/10/24 04:21:16;;;;;;;5.13;3.60;;;7.10;99.90;;;;;;6229429;28;20479;-66
2021/10/24 04:24:19;;;;;;;3.67;3.27;;;7.10;99.90;;;;;;6229653;28;20533;-66
2021/10/24 04:27:24;;;;;;;6.13;3.70;;;7.00;99.90;;;;;;6228994;28;20549;-66
2021/10/24 04:30:27;;;;;;;4.90;4.17;;;7.00;99.90;;;;;;6229130;28;20497;-67
2021/10/24 04:33:30;;;;;;;6.00;3.90;;;7.00;99.90;;;;;;6229263;28;20959;-66
2021/10/24 04:36:37;;;;;;;4.00;3.53;;;6.90;99.90;;;;;;6229253;28;20543;-67
2021/10/24 04:39:40;;;;;;;3.83;3.50;;;6.90;99.90;;;;;;6228490;28;20476;-67
2021/10/24 04:42:45;;;;;;;3.90;3.50;;;6.90;99.90;;;;;;6228571;28;20811;-67
2021/10/24 04:45:48;;;;;;;3.40;3.10;;;6.90;99.90;;;;;;6228943;28;20480;-66
2021/10/24 04:48:52;;;;;;;6.73;5.00;;;6.80;99.90;;;;;;6228826;28;20484;-67
2021/10/24 04:51:55;;;;;;;4.10;3.70;;;6.80;99.90;;;;;;6228665;28;20479;-67
2021/10/24 04:54:58;;;;;;;7.50;3.73;;;6.80;99.90;;;;;;6228426;28;20507;-67
2021/10/24 04:58:03;;;;;;;5.10;3.80;;;6.80;99.90;;;;;;6228572;28;20490;-67
2021/10/24 05:01:07;;;;;;;5.87;4.60;;;6.80;99.90;;;;;;6228195;28;20484;-67
2021/10/24 05:04:11;;;;;;;6.17;4.37;;;6.80;99.90;;;;;;6228350;28;20541;-66
2021/10/24 05:07:14;;;;;;;4.50;4.03;;;6.80;99.90;;;;;;6227889;28;20487;-66
2021/10/24 05:10:17;;;;;;;5.17;4.07;;;6.70;99.90;;;;;;6223448;28;20471;-66
2021/10/24 05:13:21;;;;;;;3.90;3.33;;;6.70;99.90;;;;;;6228421;28;20456;-66
2021/10/24 05:16:25;;;;;;;4.63;4.07;;;6.70;99.90;;;;;;6227888;28;20436;-66
2021/10/24 05:19:28;;;;;;;4.40;3.80;;;6.70;99.90;;;;;;6227953;28;20471;-66
2021/10/24 05:22:31;;;;;;;5.27;3.40;;;6.60;99.90;;;;;;6228232;28;20468;-66
2021/10/24 05:25:34;;;;;;;5.57;4.57;;;6.60;99.90;;;;;;6228080;28;20472;-66
2021/10/24 05:28:39;;;;;;;4.90;3.50;;;6.60;99.90;;;;;;6227256;28;20942;-66
2021/10/24 05:31:42;;;;;;;5.30;4.63;;;6.60;99.90;;;;;;6227474;28;20529;-66
2021/10/24 05:34:45;;;;;;;3.87;3.57;;;6.60;99.90;;;;;;6227691;28;20472;-66
2021/10/24 05:37:48;;;;;;;4.43;4.03;;;6.60;99.90;;;;;;6227694;28;20468;-65
2021/10/24 05:40:52;;;;;;;5.20;4.70;;;6.50;99.90;;;;;;6227609;28;20483;-64
2021/10/24 05:43:57;;;;;;;5.53;4.53;;;6.60;99.90;;;;;;6226962;28;20514;-65
2021/10/24 05:47:00;;;;;;;6.07;4.83;;;6.60;99.90;;;;;;6227262;28;20479;-64
2021/10/24 05:50:04;;;;;;;5.33;4.53;;;6.60;99.90;;;;;;6227426;28;20565;-66
2021/10/24 05:53:07;;;;;;;10.13;4.93;;;6.50;99.90;;;;;;6226065;28;20472;-66
2021/10/24 05:56:10;;;;;;;5.07;4.50;;;6.50;99.90;;;;;;6227482;28;20951;-66
2021/10/24 05:59:15;;;;;;;8.73;4.90;;;6.50;99.90;;;;;;6226278;28;20963;-66
2021/10/24 06:02:18;;;;;;;5.50;5.00;;;6.50;99.90;;;;;;6227956;28;20839;-65
2021/10/24 06:05:22;;;;;;;5.60;4.93;;;6.50;99.90;;;;;;6227849;28;20823;-64
2021/10/24 06:08:25;;;;;;;4.87;4.47;;;6.50;99.90;;;;;;6227757;28;20555;-65
2021/10/24 06:11:34;;;;;;;4.60;4.20;;;6.50;99.90;;;;;;6227276;28;20471;-64
2021/10/24 06:14:38;;;;;;;5.10;4.40;;;6.50;99.90;;;;;;6222901;28;20468;-64
2021/10/24 06:17:41;;;;;;;6.83;4.53;;;6.60;99.90;;;;;;6226698;28;20476;-64
2021/10/24 06:20:45;;;;;;;4.90;4.40;;;6.70;99.90;;;;;;6227002;28;20962;-64
2021/10/24 06:23:48;;;;;;;6.27;5.00;;;6.70;99.90;;;;;;6226949;28;20463;-64
2021/10/24 06:26:51;;;;;;;5.10;4.60;;;6.70;99.90;;;;;;6226491;28;20472;-64
2021/10/24 06:29:56;;;;;;;4.90;4.40;;;6.80;99.90;;;;;;6226936;28;20511;-64
2021/10/24 06:32:59;;;;;;;5.43;4.70;;;6.80;99.90;;;;;;6226719;28;20479;-64
2021/10/24 06:36:02;;;;;;;6.10;5.50;;;6.90;99.90;;;;;;6226087;28;20476;-64
2021/10/24 06:39:05;;;;;;;6.20;4.47;;;7.10;99.90;;;;;;6225959;28;20491;-65
2021/10/24 06:42:08;;;;;;;5.20;4.73;;;7.10;99.90;;;;;;6226451;28;20483;-65
2021/10/24 06:45:13;;;;;;;5.13;4.63;;;7.20;99.90;;;;;;6226169;28;20486;-64
2021/10/24 06:48:16;;;;;;;8.20;5.00;;;7.20;99.90;;;;;;6225496;28;20471;-64
2021/10/24 06:51:19;;;;;;;6.30;4.70;;;7.30;99.90;;;;;;6225804;28;20530;-65
2021/10/24 06:54:23;;;;;;;6.50;4.80;;;7.40;99.90;;;;;;6225836;28;20493;-65
2021/10/24 06:57:26;;;;;;;5.47;4.97;;;7.50;99.90;;;;;;6225865;28;20476;-65
2021/10/24 07:00:31;;;;;;;7.30;4.20;;;7.60;99.90;;;;;;6225229;28;20816;-65
2021/10/24 07:03:34;;;;;;;5.90;4.40;;;7.70;99.90;;;;;;6225341;28;20496;-64
2021/10/24 07:06:38;;;;;;;6.97;4.20;;;7.70;99.90;;;;;;6223921;28;20824;-65
2021/10/24 07:09:41;;;;;;;4.07;3.60;;;7.80;99.90;;;;;;6225271;28;20917;-64
2021/10/24 07:12:50;;;;;;;7.80;4.20;;;7.90;99.90;;;;;;6226139;28;20550;-63
2021/10/24 07:15:55;;;;;;;8.90;5.87;;;8.10;99.90;;;;;;6224608;28;20464;-65
2021/10/24 07:18:58;;;;;;;5.40;4.90;;;8.20;99.90;;;;;;6225563;28;20478;-65
2021/10/24 07:22:01;;;;;;;7.00;4.20;;;8.30;99.90;;;;;;6225893;28;20480;-64
2021/10/24 07:25:05;;;;;;;6.30;5.70;;;8.50;99.90;;;;;;6226011;28;20479;-64
2021/10/24 07:28:08;;;;;;;7.40;5.00;;;8.60;99.90;;;;;;6225639;28;20830;-64
2021/10/24 07:31:13;;;;;;;5.03;4.63;;;8.80;99.90;;;;;;6226107;28;20464;-65
2021/10/24 07:34:16;;;;;;;6.73;4.90;;;8.90;99.90;;;;;;6226222;28;20432;-66
2021/10/24 07:37:19;;;;;;;4.80;4.40;;;8.90;99.80;;;;;;6226049;28;20451;-67
2021/10/24 07:40:23;;;;;;;10.30;5.07;;;9.10;99.70;;;;;;6225859;28;20766;-65
2021/10/24 07:43:27;;;;;;;5.10;4.60;;;9.10;99.60;;;;;;6225765;28;20444;-66
2021/10/24 07:46:32;;;;;;;4.70;4.17;;;9.20;99.30;;;;;;6226243;28;20479;-66
2021/10/24 07:49:35;;;;;;;6.53;5.23;;;9.30;99.40;;;;;;6225805;28;20499;-66
2021/10/24 07:52:39;;;;;;;8.30;5.00;;;9.40;99.20;;;;;;6225567;28;20482;-66
2021/10/24 07:55:43;;;;;;;6.77;4.73;;;9.50;99.20;;;;;;6224566;28;20553;-66
2021/10/24 07:58:47;;;;;;;8.47;7.67;;;9.60;99.20;;;;;;6224526;28;20491;-66
2021/10/24 08:01:52;;;;;;;6.90;6.20;;;9.80;99.30;;;;;;6224684;28;20811;-66
2021/10/24 08:04:55;;;;;;;8.10;5.97;;;10.00;98.60;;;;;;6225090;28;20475;-66
2021/10/24 08:08:00;;;;;;;8.03;6.73;;;10.10;98.40;;;;;;6225177;28;20479;-66
2021/10/24 08:11:03;;;;;;;7.70;6.10;;;10.30;98.40;;;;;;6255643;23;20482;-66
2021/10/24 08:14:08;;;;;;;8.13;5.97;;;10.40;98.20;;;;;;6250055;28;20524;-66
2021/10/24 08:17:12;;;;;;;6.87;6.17;;;10.80;98.50;;;;;;6253934;28;20481;-66
2021/10/24 08:20:17;;;;;;;8.97;6.20;;;11.20;96.90;;;;;;6236005;28;20482;-66
2021/10/24 08:23:20;;;;;;;6.43;5.87;;;11.60;95.60;;;;;;6219715;28;20479;-66
2021/10/24 08:26:24;;;;;;;7.30;6.17;;;12.10;94.30;;;;;;6228170;28;20476;-66
2021/10/24 08:29:27;;;;;;;7.40;5.00;;;12.60;93.10;;;;;;6227369;28;20475;-67
2021/10/24 08:32:31;;;;;;;5.33;4.83;;;13.30;91.50;;;;;;6227836;28;20463;-66
2021/10/24 08:35:35;;;;;;;12.93;8.10;;;14.10;86.80;;;;;;6227771;28;20783;-66
2021/10/24 08:38:38;;;;;;;14.20;10.63;;;15.20;78.60;;;;;;6227449;28;20487;-67
2021/10/24 08:41:42;;;;;;;16.13;11.63;;;15.70;73.30;;;;;;6229004;28;20479;-67
2021/10/24 08:44:46;;;;;;;7.10;5.43;;;16.20;71.20;;;;;;6228617;28;20483;-66
2021/10/24 08:47:53;;;;;;;6.33;4.50;;;15.70;67.70;;;;;;6226896;28;20468;-66
2021/10/24 08:50:56;;;;;;;5.20;4.70;;;15.60;65.20;;;;;;6227580;28;20476;-66
2021/10/24 08:54:00;;;;;;;5.83;3.93;;;15.30;64.10;;;;;;6227611;28;20479;-66
2021/10/24 08:57:03;;;;;;;7.13;3.97;;;14.30;65.60;;;;;;6227568;28;20480;-66
2021/10/24 09:00:08;;;;;;;29.83;17.10;;;13.80;68.10;;;;;;6226631;28;20487;-66
2021/10/24 09:03:12;;;;;;;8.87;6.73;;;13.60;69.50;;;;;;6227089;28;20476;-66
2021/10/24 09:06:15;;;;;;;5.70;4.63;;;13.40;71.30;;;;;;6226976;28;20478;-67
2021/10/24 09:09:21;;;;;;;5.20;4.43;;;13.10;70.90;;;;;;6227529;28;20806;-66
2021/10/24 09:12:24;;;;;;;4.70;3.90;;;12.80;73.50;;;;;;6228404;28;21006;-66
2021/10/24 09:15:48;;;;;;;4.63;4.17;;;12.50;73.60;;;;;;6228612;28;20777;-66
2021/10/24 09:18:53;;;;;;;7.80;5.13;;;12.20;75.00;;;;;;6226067;28;20500;-66
2021/10/24 09:22:15;;;;;;;5.97;4.90;;;12.20;76.10;;;;;;6218189;28;20564;-64
2021/10/24 09:25:19;;;;;;;6.43;4.30;;;12.20;75.20;;;;;;6213134;28;20456;-65
2021/10/24 09:28:24;;;;;;;5.13;4.63;;;11.80;77.00;;;;;;6226582;28;20931;-68
2021/10/24 09:31:31;;;;;;;6.37;4.10;;;11.70;78.90;;;;;;6227374;28;20447;-68
2021/10/24 09:34:36;;;;;;;14.17;9.77;;;11.80;78.90;;;;;;6227153;28;20547;-65
2021/10/24 09:37:45;;;;;;;12.27;7.70;;;11.90;79.30;;;;;;6226797;28;20474;-65
2021/10/24 09:40:52;;;;;;;9.17;6.93;;;11.90;78.80;;;;;;6224969;28;20471;-68
2021/10/24 09:44:08;;;;;;;5.53;4.33;;;12.00;78.30;;;;;;6227709;28;20468;-70
2021/10/24 09:47:22;;;;;;;20.37;11.40;;;11.80;77.80;;;;;;6225334;28;20483;-67
2021/10/24 09:50:33;;;;;;;11.60;8.33;;;11.90;78.30;;;;;;6227699;28;20484;-66
2021/10/24 09:53:39;;;;;;;5.53;4.90;;;11.90;78.60;;;;;;6227648;28;20479;-68
2021/10/24 09:56:42;;;;;;;6.10;4.83;;;11.90;79.40;;;;;;6227075;28;20983;-68
2021/10/24 09:59:49;;;;;;;7.63;5.90;;;12.00;80.10;;;;;;6226526;28;20919;-69
2021/10/24 10:02:52;;;;;;;6.33;4.80;;;12.40;78.40;;;;;;6226955;28;20472;-68
2021/10/24 10:05:58;;;;;;;7.27;5.67;;;12.30;77.40;;;;;;6226428;28;20537;-67
2021/10/24 10:09:13;;;;;;;14.30;10.27;;;12.50;77.60;;;;;;6226571;28;20480;-68
2021/10/24 10:12:21;;;;;;;7.73;5.50;;;13.30;77.20;;;;;;6226639;28;20471;-68
2021/10/24 10:15:34;;;;;;;11.93;5.53;;;15.80;72.10;;;;;;6226525;28;20472;-65
2021/10/24 10:19:08;;;;;;;5.90;4.70;;;20.10;62.20;;;;;;6226307;28;20486;-68
2021/10/24 10:22:30;;;;;;;7.20;6.50;;;26.40;45.30;;;;;;6183198;28;20229;-69
2021/10/24 10:25:35;;;;;;;5.50;4.93;;;30.00;33.40;;;;;;6226103;28;20240;-70
2021/10/24 10:28:47;;;;;;;7.03;5.10;;;32.40;28.60;;;;;;6226597;28;20230;-71
2021/10/24 10:32:12;;;;;;;6.70;5.35;;;34.30;26.30;;;;;;6226396;28;20676;-70
2021/10/24 10:35:17;;;;;;;4.85;4.28;;;36.10;24.20;;;;;;6201890;28;20233;-71
2021/10/24 10:38:36;;;;;;;5.03;4.63;;;36.90;22.80;;;;;;6201686;28;20248;-70
2021/10/24 10:41:43;;;;;;;5.93;5.13;;;38.60;21.40;;;;;;6202089;28;20543;-71
2021/10/24 10:45:27;;;;;;;5.90;5.18;;;35.80;21.70;;;;;;6201855;28;20558;-70
2021/10/24 10:48:34;;;;;;;8.13;5.70;;;31.60;23.90;;;;;;6201271;28;20336;-67
2021/10/24 10:51:37;;;;;;;5.80;5.20;;;29.00;27.30;;;;;;6202012;28;20244;-68
2021/10/24 10:58:32;;;;;;;5.73;5.23;;;27.80;28.10;;;;;;6322470;27;20861;-68
2021/10/24 11:01:39;;;;;;;7.23;6.53;;;24.70;32.00;;;;;;6318959;28;20541;-70
2021/10/24 11:04:52;;;;;;;6.17;5.57;;;23.30;34.20;;;;;;6296337;28;20218;-69
2021/10/24 11:07:55;;;;;;;10.80;9.87;;;20.90;38.20;;;;;;6296174;28;20678;-69
2021/10/24 11:10:58;;;;;;;7.20;5.30;;;20.20;40.00;;;;;;6296493;28;20226;-69
2021/10/24 11:14:23;;;;;;;6.33;5.00;;;19.70;41.00;;;;;;6296567;28;20238;-69
2021/10/24 11:17:41;;;;;;;6.67;6.07;;;18.80;43.20;;;;;;6295983;28;20245;-69
2021/10/24 11:20:47;;;;;;;9.23;5.60;;;18.50;44.40;;;;;;6295827;28;20239;-69
2021/10/24 11:23:56;;;;;;;7.03;5.80;;;17.40;46.80;;;;;;6296110;28;20473;-69
2021/10/24 11:27:00;;;;;;;6.83;4.90;;;16.80;48.40;;;;;;6297541;28;20466;-68
2021/10/24 11:30:08;;;;;;;5.73;5.13;;;16.00;50.40;;;;;;6310013;28;20479;-69
2021/10/24 11:33:12;;;;;;;6.60;5.37;;;15.90;51.60;;;;;;6320932;28;20975;-69
2021/10/24 11:36:23;;;;;;;7.53;6.00;;;16.30;51.90;;;;;;6313238;28;20488;-69
2021/10/24 11:39:26;;;;;;;4.80;4.30;;;16.50;51.40;;;;;;6322258;28;20483;-69
2021/10/24 11:42:30;;;;;;;6.03;5.43;;;16.50;51.10;;;;;;6321293;28;20477;-70
2021/10/24 11:45:38;;;;;;;7.80;5.30;;;16.60;51.30;;;;;;6321199;28;20836;-68
2021/10/24 11:48:41;;;;;;;5.87;5.27;;;16.40;51.00;;;;;;6320023;28;20483;-67
2021/10/24 11:51:52;;;;;;;8.07;5.63;;;16.20;51.40;;;;;;6320402;28;20484;-67
2021/10/24 11:55:06;;;;;;;4.93;4.40;;;15.90;52.30;;;;;;6320430;28;20468;-67
2021/10/24 11:58:26;;;;;;;5.30;4.90;;;15.60;53.20;;;;;;6320048;28;20495;-67
2021/10/24 12:01:33;;;;;;;7.10;4.87;;;15.40;54.40;;;;;;6320786;28;20413;-67
2021/10/24 12:04:36;;;;;;;7.97;4.57;;;15.90;54.00;;;;;;6320403;28;20796;-67
2021/10/24 12:07:51;;;;;;;7.10;5.13;;;15.90;53.50;;;;;;6314100;28;20982;-67
2021/10/24 12:10:54;;;;;;;16.30;10.87;;;16.10;53.40;;;;;;6304586;28;20480;-67
2021/10/24 12:14:03;;;;;;;8.70;6.93;;;16.20;53.00;;;;;;6304212;28;20475;-69
2021/10/24 12:17:16;;;;;;;5.87;4.73;;;16.20;52.60;;;;;;6303594;28;20469;-66
2021/10/24 12:20:23;;;;;;;7.43;5.50;;;16.10;52.30;;;;;;6301895;28;20473;-66
2021/10/24 12:23:28;;;;;;;5.70;5.10;;;16.10;52.40;;;;;;6277662;28;20473;-66
2021/10/24 12:26:34;;;;;;;6.10;4.80;;;16.00;52.50;;;;;;6277493;28;20473;-65
2021/10/24 12:29:37;;;;;;;4.20;3.80;;;16.10;52.70;;;;;;6289165;28;20477;-66
2021/10/24 12:32:59;;;;;;;5.73;3.77;;;16.20;52.40;;;;;;6302591;28;20665;-69
2021/10/24 12:36:06;;;;;;;5.20;3.90;;;16.80;52.50;;;;;;6301952;28;20465;-67
2021/10/24 12:39:22;;;;;;;3.80;3.50;;;18.00;50.10;;;;;;6298163;28;20469;-69
2021/10/24 12:42:26;;;;;;;9.03;5.40;;;21.10;47.30;;;;;;6302207;28;20488;-68
2021/10/24 12:45:48;;;;;;;4.77;4.37;;;26.00;39.50;;;;;;6302442;28;20238;-69
2021/10/24 12:48:53;;;;;;;5.13;4.57;;;30.00;31.20;;;;;;6302366;28;20255;-69
2021/10/24 12:52:10;;;;;;;6.60;4.47;;;30.30;29.30;;;;;;6302985;28;20251;-66
2021/10/24 12:55:14;;;;;;;5.90;5.10;;;32.20;27.70;;;;;;6295320;28;20211;-70
2021/10/24 12:58:17;;;;;;;8.27;4.82;;;33.90;25.50;;;;;;6276941;28;20382;-68
2021/10/24 13:01:22;;;;;;;6.50;4.85;;;33.50;24.70;;;;;;6277717;28;20627;-68
2021/10/24 13:04:27;;;;;;;5.07;4.68;;;34.30;24.20;;;;;;6278308;28;20647;-66
2021/10/24 13:07:30;;;;;;;6.68;5.20;;;34.90;23.60;;;;;;6278367;28;20195;-69
2021/10/24 13:10:33;;;;;;;6.00;5.50;;;33.00;24.30;;;;;;6278776;28;20663;-68
2021/10/24 13:13:37;;;;;;;5.27;4.83;;;29.30;27.00;;;;;;6277061;28;20324;-69
2021/10/24 13:16:41;;;;;;;4.93;4.53;;;27.80;28.70;;;;;;6276580;28;20222;-66
2021/10/24 13:19:45;;;;;;;6.10;4.57;;;26.20;30.10;;;;;;6275299;28;20280;-67
2021/10/24 13:22:56;;;;;;;6.33;5.10;;;24.30;32.70;;;;;;6257511;28;20224;-67
2021/10/24 13:26:00;;;;;;;5.63;5.10;;;22.70;35.60;;;;;;6253909;28;20224;-67
2021/10/24 13:29:03;;;;;;;4.93;4.20;;;21.60;37.10;;;;;;6252594;28;20224;-67
2021/10/24 13:32:07;;;;;;;5.73;4.60;;;20.10;39.70;;;;;;6253492;28;20701;-67
2021/10/24 13:35:12;;;;;;;8.27;4.03;;;19.10;42.00;;;;;;6252547;28;20220;-67
2021/10/24 13:38:15;;;;;;;5.20;4.70;;;18.40;43.30;;;;;;6260438;23;20231;-66
2021/10/24 13:41:19;;;;;;;8.00;6.57;;;17.60;45.60;;;;;;6203556;28;20522;-67
2021/10/24 13:44:23;;;;;;;6.20;5.60;;;17.10;46.70;;;;;;6204209;28;20504;-68
2021/10/24 13:47:26;;;;;;;7.70;7.00;;;16.50;48.40;;;;;;6205189;28;20472;-67
2021/10/24 13:50:31;;;;;;;8.13;7.33;;;16.20;49.20;;;;;;6203991;28;20477;-67
2021/10/24 13:53:34;;;;;;;5.13;4.73;;;15.90;50.30;;;;;;6203900;28;20487;-68
2021/10/24 13:56:38;;;;;;;6.37;4.53;;;15.50;51.40;;;;;;6204684;28;20495;-67
2021/10/24 13:59:41;;;;;;;6.20;4.43;;;15.30;52.70;;;;;;6204006;28;20961;-67
2021/10/24 14:02:48;;;;;;;7.43;6.67;;;15.10;52.90;;;;;;6202451;28;20481;-67
2021/10/24 14:05:53;;;;;;;6.90;6.07;;;14.90;54.10;;;;;;6202016;28;20488;-67
2021/10/24 14:08:57;;;;;;;7.23;4.80;;;14.70;54.80;;;;;;6202302;28;20488;-67
2021/10/24 14:12:00;;;;;;;10.83;7.00;;;14.50;55.00;;;;;;6201978;28;20468;-67
2021/10/24 14:15:04;;;;;;;5.70;5.10;;;14.50;55.90;;;;;;6201986;28;20468;-65
2021/10/24 14:18:08;;;;;;;4.60;4.20;;;14.40;55.90;;;;;;6202417;28;20476;-67
2021/10/24 14:21:13;;;;;;;8.77;4.90;;;14.40;56.00;;;;;;6202358;28;20476;-68
2021/10/24 14:24:18;;;;;;;4.23;3.93;;;14.40;56.30;;;;;;6194758;28;20485;-68
2021/10/24 14:27:22;;;;;;;3.80;3.50;;;14.30;56.60;;;;;;6200151;28;20473;-68
2021/10/24 14:30:25;;;;;;;7.50;4.60;;;14.30;57.00;;;;;;6180304;28;20966;-65
2021/10/24 14:33:28;;;;;;;5.57;4.10;;;14.30;57.10;;;;;;6177883;28;20470;-69
2021/10/24 14:36:44;;;;;;;6.73;4.00;;;14.30;57.30;;;;;;6179374;28;20519;-71
2021/10/24 14:39:49;;;;;;;4.20;3.73;;;14.30;57.40;;;;;;6177670;28;20486;-68
2021/10/24 14:43:04;;;;;;;11.40;4.87;;;14.30;57.30;;;;;;6180275;28;20473;-69
2021/10/24 14:46:08;;;;;;;4.23;3.83;;;14.20;57.80;;;;;;6180955;28;20473;-71
2021/10/24 14:49:13;;;;;;;5.33;3.73;;;14.10;57.80;;;;;;6169108;28;20571;-70
2021/10/24 14:52:17;;;;;;;4.73;3.87;;;14.00;57.70;;;;;;6178021;28;20442;-69
2021/10/24 14:55:20;;;;;;;6.37;3.97;;;13.80;57.70;;;;;;6189319;28;20436;-68
2021/10/24 14:58:24;;;;;;;4.50;4.10;;;13.80;58.20;;;;;;6202901;28;20791;-66
2021/10/24 15:01:27;;;;;;;5.30;3.40;;;13.70;58.00;;;;;;6206425;28;20456;-66
2021/10/24 15:04:31;;;;;;;4.50;3.67;;;13.60;58.60;;;;;;6203325;28;20464;-70
2021/10/24 15:07:39;;;;;;;4.60;3.40;;;13.50;58.60;;;;;;6203830;28;20480;-69
2021/10/24 15:10:43;;;;;;;3.70;3.37;;;13.40;58.80;;;;;;6202211;28;20469;-65
2021/10/24 15:13:46;;;;;;;5.13;4.00;;;13.40;59.40;;;;;;6201499;28;20472;-66
2021/10/24 15:16:52;;;;;;;4.00;3.70;;;13.40;59.50;;;;;;6202125;28;20476;-70
2021/10/24 15:23:17;;;;;;;4.17;3.77;;;13.40;59.80;;;;;;6191808;28;20811;-66
2021/10/24 15:26:22;;;;;;;3.80;3.50;;;13.40;60.20;;;;;;6201177;28;20464;-65
2021/10/24 15:29:26;;;;;;;3.93;3.53;;;13.40;60.40;;;;;;6200236;28;20785;-66
2021/10/24 15:32:29;;;;;;;4.43;3.80;;;13.40;60.40;;;;;;6200413;28;20976;-66
2021/10/24 15:35:33;;;;;;;4.20;3.50;;;13.30;59.90;;;;;;6192070;28;20972;-65
2021/10/24 15:38:37;;;;;;;5.07;3.93;;;13.30;60.30;;;;;;6191974;28;20480;-67
2021/10/24 15:41:41;;;;;;;3.60;3.30;;;13.20;61.00;;;;;;6183708;28;20473;-66
2021/10/24 15:44:44;;;;;;;5.13;3.70;;;13.10;61.50;;;;;;6192304;28;20476;-66
2021/10/24 15:47:47;;;;;;;5.20;3.73;;;13.10;62.50;;;;;;6190771;28;20464;-65
2021/10/24 15:50:50;;;;;;;4.53;4.17;;;13.10;62.90;;;;;;6176991;28;20492;-66
2021/10/24 15:53:55;;;;;;;5.70;4.70;;;12.90;63.20;;;;;;6180656;28;20488;-67
2021/10/24 15:57:01;;;;;;;8.97;5.50;;;12.90;63.90;;;;;;6181287;28;20478;-67
2021/10/24 16:00:06;;;;;;;6.50;4.30;;;12.90;65.30;;;;;;6180428;28;20469;-66
2021/10/24 16:03:10;;;;;;;6.30;3.83;;;12.90;66.20;;;;;;6180915;28;20481;-66
2021/10/24 16:06:13;;;;;;;4.60;3.97;;;12.90;65.60;;;;;;6180909;28;20850;-65
2021/10/24 16:09:20;;;;;;;4.03;3.63;;;12.90;66.20;;;;;;6180706;28;20465;-65
2021/10/24 16:12:24;;;;;;;3.53;3.23;;;12.90;66.30;;;;;;6180035;28;21016;-66
2021/10/24 16:15:27;;;;;;;4.27;3.87;;;12.90;66.80;;;;;;6180208;28;20488;-65